Al Khuwair — C6VM6 — position and weather

sailwx.info

Track history (hours):
 
Tides and Currents Weather Stations Pressure Air Temp Water Temp Dewpoint Dewpoint Depression Visibility Wind Speed Wind Dir Waves Ship Positions

Al Khuwair

Last reported at 2015-May-30 18:32 UTC. Time now 2015-May-30 20:37 UTC.
Position N 37°54' E 009°42'.

Length 315 m; draft 12 m.

Type: Ship (hazmat cat A). MMSI: 311000140.

Date/timePositionNaut miles runAvg speedWind from/ knotsBaromVisibWave heightAir tempDewpointWater temp
2015-May-30 18:32N 37°54' E 009°42'9117.8
2015-May-30 13:26N 37°19' E 011°28'1719.2
2015-May-30 12:33N 37°10' E 011°46'1918.9
2015-May-30 11:33N 37°03' E 012°07'4118.1
2015-May-30 09:18N 36°50' E 012°56'2218.5
2015-May-30 08:05N 36°40' E 013°21'1418.3
2015-May-30 07:18N 36°36' E 013°38'1318.2
2015-May-30 06:33N 36°32' E 013°54'2018.7
2015-May-30 05:30N 36°23' E 014°16'1819.1
2015-May-30 04:33N 36°17' E 014°37'2218.8
2015-May-30 03:25N 36°09' E 015°02'2218.8
2015-May-30 02:16N 36°04' E 015°28'87118.2
2015-May-28 02:19N 31°39' E 032°07'1717.8
2015-May-28 01:22N 31°28' E 032°23'  
Track history (hours):
 
Tides and Currents Weather Stations Pressure Air Temp Water Temp Dewpoint Dewpoint Depression Visibility Wind Speed Wind Dir Waves Ship Positions

Al Khuwair

Last reported at 2015-May-30 18:32 UTC. Time now 2015-May-30 20:37 UTC.
Position N 37°54' E 009°42'.

Length 315 m; draft 12 m.

Type: Ship (hazmat cat A). MMSI: 311000140.

Date/timePositionNaut miles runAvg speedWind from/ knotsBaromVisibWave heightAir tempDewpointWater temp
2015-May-30 18:32N 37°54' E 009°42'9117.8
2015-May-30 13:26N 37°19' E 011°28'1719.2
2015-May-30 12:33N 37°10' E 011°46'1918.9
2015-May-30 11:33N 37°03' E 012°07'4118.1
2015-May-30 09:18N 36°50' E 012°56'2218.5
2015-May-30 08:05N 36°40' E 013°21'1418.3
2015-May-30 07:18N 36°36' E 013°38'1318.2
2015-May-30 06:33N 36°32' E 013°54'2018.7
2015-May-30 05:30N 36°23' E 014°16'1819.1
2015-May-30 04:33N 36°17' E 014°37'2218.8
2015-May-30 03:25N 36°09' E 015°02'2218.8
2015-May-30 02:16N 36°04' E 015°28'87118.2
2015-May-28 02:19N 31°39' E 032°07'1717.8
2015-May-28 01:22N 31°28' E 032°23'  

Dump ship's entire track history